Woolly Bugger, West Virginia
Current Conditions -  °F | °C
As of 11:06 PM on Sunday 23 Nov 2014 (Local Time) from KMRB Reporting Station
Moderate Rain Moderate Rain  
Wind Chill: 47°   Ceiling: 300
Heat Index: 49°   Visibility: 1.5mi
Dew Point: 45°   Wind: 5mph
Humidity: 86%   Direction: 50°NE
Pressure: 29.79"   Gusts: NA
Location:  39.3053°N, 77.8555°W
Report Text: KMRB 240406Z AUTO 05004KT 1 1/2SM RA BR OVC003 09/07 A2979 RMK AO2 PRESFR P0002 T00940072 TSNO
Loading
Personal Weather Stations






























Interactive Weather Map New forecast layout! Learn more

10-Day Weather Forecast

Advertisements
Track Severe Weather on mobile